El Paso de Robles, CA

7:32 PM PDT en Agosto 30, 2015 (GMT -0700)
Golden Hills | | Change Station
CLOSE
Current Station
Estación meteorológica personal
Location: Paso Robles, CA
Altura: 804 ft
Estaciones meteorológicas cercanas

Alt 804 ft 35.63 °N, 120.67 °W | Updated 27 seconds ago

Despejado
Despejado
76.8 ° F
Sensación térmica 78 ° F
N
4.0
Viento Variable Viento desde ONO
Gusts 5.0 mph

Hoy
Alta -- | Baja -- ° F
--% Posibilidad de precipitaciones
Ayer
Alta -- | Baja -- ° F
Precip. -- pul
6:33 AM 7:32 PM
Luna llena, 97% visible
Presión 29.85 pul
Visibilidad 10.0 Millas
Nubes Despejado
Índice de calor 78 ° F
Punto de rocío 51 ° F
Humedad 41%
Precipitaciones 0.00 pul
Espesor de la nieve No disponible.
UV 0 de una escala de 12
Polen 8.80 de una escala de 12
Calidad del aire No disponible.
Flu Activity No disponible.
METAR KPRB 310153Z AUTO 32015G24KT 10SM CLR 28/08 A2987 RMK AO2 SLP108 T02780083 TSNO
Presión 29.85 pul
Visibilidad 10.0 Millas
Nubes Despejado
Índice de calor 78 ° F
Punto de rocío 51 ° F
Humedad 41%
Precipitaciones 0.00 pul
Espesor de la nieve No disponible.
UV 0 de una escala de 12
Polen 8.80 de una escala de 12
Calidad del aire No disponible.
Flu Activity No disponible.
METAR KPRB 310153Z AUTO 32015G24KT 10SM CLR 28/08 A2987 RMK AO2 SLP108 T02780083 TSNO

10-Day Weather Forecast

×

Almanac

Astronomía

Aug. 30, 2015 Salida Puesta
Hora real
Crepúsculo civil
Crepúsculo náutico
Crepúsculo astronómico
Luna
Horas de luz
Horas de luz
Tomorrow will be .
, % of the Moon is Illuminated

Extremos de hoy

Máximos del estado Bajos del estado

Community

WunderPhotos

Upload Photos

1,851,164 ¡fotos cargadas!

WunderBlogs® & News

Nearby

Calidad del aire

  Calidad del aire Índice AQ Contaminante
Not available.

Grosos de nieve

Estación Profundido Altura

Actividad de terremotos

Ciudad Distance Mag. Tiempo y dato
Magnitud mínima muestra es 2,5.

Temperaturas de aguas costeras

Lugar Temperatura

Stations

Estaciones meteorológicas cercanas

Ubicación de la estación Temp. Vientos helados Punto de rocío Humedad Viento Precip. Alt Actualizado Tipo